sensor_id;sensor_type;location;lat;lon;timestamp;temperature;humidity
15231;DHT22;32569;51.762;8.564;2024-02-26T00:01:48;4.10;99.90
15231;DHT22;32569;51.762;8.564;2024-02-26T00:04:15;4.10;99.90
15231;DHT22;32569;51.762;8.564;2024-02-26T00:06:42;4.10;99.90
15231;DHT22;32569;51.762;8.564;2024-02-26T00:09:09;4.20;99.90
15231;DHT22;32569;51.762;8.564;2024-02-26T00:11:36;4.20;99.90
15231;DHT22;32569;51.762;8.564;2024-02-26T00:14:03;4.20;99.90
15231;DHT22;32569;51.762;8.564;2024-02-26T00:16:30;4.20;99.90
15231;DHT22;32569;51.762;8.564;2024-02-26T00:18:58;4.30;99.90
15231;DHT22;32569;51.762;8.564;2024-02-26T00:21:24;4.40;99.90
15231;DHT22;32569;51.762;8.564;2024-02-26T00:23:53;4.40;99.90
15231;DHT22;32569;51.762;8.564;2024-02-26T00:26:19;4.40;99.90
15231;DHT22;32569;51.762;8.564;2024-02-26T00:28:46;4.40;99.90
15231;DHT22;32569;51.762;8.564;2024-02-26T00:31:13;4.50;99.90
15231;DHT22;32569;51.762;8.564;2024-02-26T00:33:39;4.50;99.90
15231;DHT22;32569;51.762;8.564;2024-02-26T00:36:07;4.50;99.90
15231;DHT22;32569;51.762;8.564;2024-02-26T00:38:35;4.50;99.90
15231;DHT22;32569;51.762;8.564;2024-02-26T00:41:02;4.50;99.90
15231;DHT22;32569;51.762;8.564;2024-02-26T00:43:29;4.60;99.90
15231;DHT22;32569;51.762;8.564;2024-02-26T00:45:55;4.60;99.90
15231;DHT22;32569;51.762;8.564;2024-02-26T00:48:22;4.60;99.90
15231;DHT22;32569;51.762;8.564;2024-02-26T00:50:51;4.60;99.90
15231;DHT22;32569;51.762;8.564;2024-02-26T00:53:19;4.60;99.90
15231;DHT22;32569;51.762;8.564;2024-02-26T00:55:45;4.60;99.90
15231;DHT22;32569;51.762;8.564;2024-02-26T00:58:12;4.60;99.90
15231;DHT22;32569;51.762;8.564;2024-02-26T01:00:39;4.60;99.90
15231;DHT22;32569;51.762;8.564;2024-02-26T01:03:05;4.70;99.90
15231;DHT22;32569;51.762;8.564;2024-02-26T01:05:32;4.60;99.90
15231;DHT22;32569;51.762;8.564;2024-02-26T01:07:59;4.70;99.90
15231;DHT22;32569;51.762;8.564;2024-02-26T01:10:27;4.70;99.90
15231;DHT22;32569;51.762;8.564;2024-02-26T01:12:53;4.70;99.90
15231;DHT22;32569;51.762;8.564;2024-02-26T01:15:20;4.70;99.90
15231;DHT22;32569;51.762;8.564;2024-02-26T01:17:49;4.70;99.90
15231;DHT22;32569;51.762;8.564;2024-02-26T01:20:15;4.70;99.90
15231;DHT22;32569;51.762;8.564;2024-02-26T01:22:42;4.80;99.90
15231;DHT22;32569;51.762;8.564;2024-02-26T01:25:09;4.80;99.90
15231;DHT22;32569;51.762;8.564;2024-02-26T01:27:37;4.80;99.90
15231;DHT22;32569;51.762;8.564;2024-02-26T01:30:06;4.80;99.90
15231;DHT22;32569;51.762;8.564;2024-02-26T01:32:33;4.80;99.90
15231;DHT22;32569;51.762;8.564;2024-02-26T01:35:01;4.80;99.90
15231;DHT22;32569;51.762;8.564;2024-02-26T01:37:28;4.80;99.90
15231;DHT22;32569;51.762;8.564;2024-02-26T01:39:56;4.80;99.90
15231;DHT22;32569;51.762;8.564;2024-02-26T01:42:22;4.80;99.90
15231;DHT22;32569;51.762;8.564;2024-02-26T01:44:50;4.80;99.90
15231;DHT22;32569;51.762;8.564;2024-02-26T01:47:17;4.80;99.90
15231;DHT22;32569;51.762;8.564;2024-02-26T01:49:44;4.80;99.90
15231;DHT22;32569;51.762;8.564;2024-02-26T01:52:11;4.80;99.90
15231;DHT22;32569;51.762;8.564;2024-02-26T01:54:38;4.80;99.90
15231;DHT22;32569;51.762;8.564;2024-02-26T01:57:06;4.80;99.90
15231;DHT22;32569;51.762;8.564;2024-02-26T01:59:34;4.80;99.90
15231;DHT22;32569;51.762;8.564;2024-02-26T02:02:06;4.80;99.90
15231;DHT22;32569;51.762;8.564;2024-02-26T02:04:34;4.80;99.90
15231;DHT22;32569;51.762;8.564;2024-02-26T02:07:01;4.80;99.90
15231;DHT22;32569;51.762;8.564;2024-02-26T02:09:28;4.80;99.90
15231;DHT22;32569;51.762;8.564;2024-02-26T02:11:55;4.80;99.90
15231;DHT22;32569;51.762;8.564;2024-02-26T02:14:22;4.70;99.90
15231;DHT22;32569;51.762;8.564;2024-02-26T02:16:49;4.80;99.90
15231;DHT22;32569;51.762;8.564;2024-02-26T02:19:17;4.80;99.90
15231;DHT22;32569;51.762;8.564;2024-02-26T02:21:45;4.70;99.90
15231;DHT22;32569;51.762;8.564;2024-02-26T02:24:14;4.60;99.90
15231;DHT22;32569;51.762;8.564;2024-02-26T02:26:41;4.50;99.90
15231;DHT22;32569;51.762;8.564;2024-02-26T02:29:08;4.50;99.90
15231;DHT22;32569;51.762;8.564;2024-02-26T02:31:35;4.60;99.90
15231;DHT22;32569;51.762;8.564;2024-02-26T02:34:02;4.80;99.90
15231;DHT22;32569;51.762;8.564;2024-02-26T02:36:28;4.80;99.90
15231;DHT22;32569;51.762;8.564;2024-02-26T02:38:56;4.80;99.90
15231;DHT22;32569;51.762;8.564;2024-02-26T02:41:23;4.90;99.90
15231;DHT22;32569;51.762;8.564;2024-02-26T02:43:51;4.80;99.90
15231;DHT22;32569;51.762;8.564;2024-02-26T02:46:18;4.80;99.90
15231;DHT22;32569;51.762;8.564;2024-02-26T02:48:45;4.70;99.90
15231;DHT22;32569;51.762;8.564;2024-02-26T02:51:11;4.70;99.90
15231;DHT22;32569;51.762;8.564;2024-02-26T02:53:38;4.70;99.90
15231;DHT22;32569;51.762;8.564;2024-02-26T02:56:06;4.70;99.90
15231;DHT22;32569;51.762;8.564;2024-02-26T02:58:33;4.80;99.90
15231;DHT22;32569;51.762;8.564;2024-02-26T03:00:59;4.90;99.90
15231;DHT22;32569;51.762;8.564;2024-02-26T03:03:26;4.90;99.90
15231;DHT22;32569;51.762;8.564;2024-02-26T03:05:54;4.90;99.90
15231;DHT22;32569;51.762;8.564;2024-02-26T03:08:20;5.00;99.90
15231;DHT22;32569;51.762;8.564;2024-02-26T03:10:47;5.00;99.90
15231;DHT22;32569;51.762;8.564;2024-02-26T03:13:15;5.10;99.90
15231;DHT22;32569;51.762;8.564;2024-02-26T03:15:42;5.10;99.90
15231;DHT22;32569;51.762;8.564;2024-02-26T03:18:08;5.10;99.90
15231;DHT22;32569;51.762;8.564;2024-02-26T03:20:35;5.20;99.90
15231;DHT22;32569;51.762;8.564;2024-02-26T03:23:02;5.30;99.90
15231;DHT22;32569;51.762;8.564;2024-02-26T03:25:29;5.40;99.90
15231;DHT22;32569;51.762;8.564;2024-02-26T03:28:01;5.40;99.90
15231;DHT22;32569;51.762;8.564;2024-02-26T03:30:29;5.50;99.90
15231;DHT22;32569;51.762;8.564;2024-02-26T03:32:59;5.50;99.90
15231;DHT22;32569;51.762;8.564;2024-02-26T03:35:25;5.60;99.90
15231;DHT22;32569;51.762;8.564;2024-02-26T03:37:55;5.70;99.90
15231;DHT22;32569;51.762;8.564;2024-02-26T03:40:22;5.70;99.90
15231;DHT22;32569;51.762;8.564;2024-02-26T03:42:55;5.60;99.90
15231;DHT22;32569;51.762;8.564;2024-02-26T03:45:23;5.50;99.90
15231;DHT22;32569;51.762;8.564;2024-02-26T03:47:52;5.50;99.90
15231;DHT22;32569;51.762;8.564;2024-02-26T03:50:21;5.60;99.90
15231;DHT22;32569;51.762;8.564;2024-02-26T03:52:48;5.70;99.90
15231;DHT22;32569;51.762;8.564;2024-02-26T03:55:14;5.80;99.90
15231;DHT22;32569;51.762;8.564;2024-02-26T03:57:43;5.80;99.90
15231;DHT22;32569;51.762;8.564;2024-02-26T04:00:11;5.80;99.90
15231;DHT22;32569;51.762;8.564;2024-02-26T04:02:38;5.70;99.90
15231;DHT22;32569;51.762;8.564;2024-02-26T04:05:09;5.70;99.90
15231;DHT22;32569;51.762;8.564;2024-02-26T04:07:36;5.80;99.90
15231;DHT22;32569;51.762;8.564;2024-02-26T04:10:03;5.80;99.90
15231;DHT22;32569;51.762;8.564;2024-02-26T04:12:34;5.90;99.90
15231;DHT22;32569;51.762;8.564;2024-02-26T04:15:01;6.00;99.90
15231;DHT22;32569;51.762;8.564;2024-02-26T04:17:29;6.00;99.90
15231;DHT22;32569;51.762;8.564;2024-02-26T04:19:56;6.10;99.90
15231;DHT22;32569;51.762;8.564;2024-02-26T04:22:24;6.00;99.90
15231;DHT22;32569;51.762;8.564;2024-02-26T04:24:50;6.00;99.90
15231;DHT22;32569;51.762;8.564;2024-02-26T04:27:17;5.90;99.90
15231;DHT22;32569;51.762;8.564;2024-02-26T04:29:44;5.80;99.90
15231;DHT22;32569;51.762;8.564;2024-02-26T04:32:10;6.00;99.90
15231;DHT22;32569;51.762;8.564;2024-02-26T04:34:37;6.10;99.90
15231;DHT22;32569;51.762;8.564;2024-02-26T04:37:03;6.00;99.90
15231;DHT22;32569;51.762;8.564;2024-02-26T04:39:32;6.00;99.90
15231;DHT22;32569;51.762;8.564;2024-02-26T04:41:58;6.00;99.90
15231;DHT22;32569;51.762;8.564;2024-02-26T04:44:30;5.90;99.90
15231;DHT22;32569;51.762;8.564;2024-02-26T04:47:00;6.00;99.90
15231;DHT22;32569;51.762;8.564;2024-02-26T04:49:27;5.90;99.90
15231;DHT22;32569;51.762;8.564;2024-02-26T04:51:56;5.90;99.90
15231;DHT22;32569;51.762;8.564;2024-02-26T04:54:23;5.90;99.90
15231;DHT22;32569;51.762;8.564;2024-02-26T04:56:51;6.00;99.90
15231;DHT22;32569;51.762;8.564;2024-02-26T04:59:17;6.00;99.90
15231;DHT22;32569;51.762;8.564;2024-02-26T05:01:47;6.10;99.90
15231;DHT22;32569;51.762;8.564;2024-02-26T05:04:16;6.10;99.90
15231;DHT22;32569;51.762;8.564;2024-02-26T05:06:43;6.10;99.90
15231;DHT22;32569;51.762;8.564;2024-02-26T05:09:10;6.10;99.90
15231;DHT22;32569;51.762;8.564;2024-02-26T05:11:36;6.10;99.90
15231;DHT22;32569;51.762;8.564;2024-02-26T05:14:04;6.10;99.90
15231;DHT22;32569;51.762;8.564;2024-02-26T05:16:31;6.20;99.90
15231;DHT22;32569;51.762;8.564;2024-02-26T05:18:57;6.20;99.90
15231;DHT22;32569;51.762;8.564;2024-02-26T05:21:24;6.20;99.90
15231;DHT22;32569;51.762;8.564;2024-02-26T05:23:51;6.20;99.90
15231;DHT22;32569;51.762;8.564;2024-02-26T05:26:20;6.20;99.90
15231;DHT22;32569;51.762;8.564;2024-02-26T05:28:47;6.30;99.90
15231;DHT22;32569;51.762;8.564;2024-02-26T05:31:16;6.30;99.90
15231;DHT22;32569;51.762;8.564;2024-02-26T05:33:43;6.30;99.90
15231;DHT22;32569;51.762;8.564;2024-02-26T05:36:10;6.30;99.90
15231;DHT22;32569;51.762;8.564;2024-02-26T05:38:36;6.30;99.90
15231;DHT22;32569;51.762;8.564;2024-02-26T05:41:06;6.40;99.90
15231;DHT22;32569;51.762;8.564;2024-02-26T05:43:33;6.40;99.90
15231;DHT22;32569;51.762;8.564;2024-02-26T05:46:08;6.40;99.90
15231;DHT22;32569;51.762;8.564;2024-02-26T05:48:36;6.40;99.90
15231;DHT22;32569;51.762;8.564;2024-02-26T05:51:03;6.40;99.90
15231;DHT22;32569;51.762;8.564;2024-02-26T05:53:30;6.40;99.90
15231;DHT22;32569;51.762;8.564;2024-02-26T05:55:57;6.30;99.90
15231;DHT22;32569;51.762;8.564;2024-02-26T05:58:23;6.20;99.90
15231;DHT22;32569;51.762;8.564;2024-02-26T06:00:50;6.10;99.90
15231;DHT22;32569;51.762;8.564;2024-02-26T06:03:16;6.20;99.90
15231;DHT22;32569;51.762;8.564;2024-02-26T06:05:46;6.20;99.90
15231;DHT22;32569;51.762;8.564;2024-02-26T06:08:12;6.10;99.90
15231;DHT22;32569;51.762;8.564;2024-02-26T06:10:39;6.00;99.90
15231;DHT22;32569;51.762;8.564;2024-02-26T06:13:06;5.90;99.90
15231;DHT22;32569;51.762;8.564;2024-02-26T06:15:33;5.90;99.90
15231;DHT22;32569;51.762;8.564;2024-02-26T06:17:59;6.00;99.90
15231;DHT22;32569;51.762;8.564;2024-02-26T06:20:26;6.10;99.90
15231;DHT22;32569;51.762;8.564;2024-02-26T06:22:54;6.20;99.90
15231;DHT22;32569;51.762;8.564;2024-02-26T06:25:21;6.20;99.90
15231;DHT22;32569;51.762;8.564;2024-02-26T06:27:48;6.10;99.90
15231;DHT22;32569;51.762;8.564;2024-02-26T06:30:14;6.10;99.90
15231;DHT22;32569;51.762;8.564;2024-02-26T06:32:41;6.20;99.90
15231;DHT22;32569;51.762;8.564;2024-02-26T06:35:09;6.20;99.90
15231;DHT22;32569;51.762;8.564;2024-02-26T06:37:37;6.30;99.90
15231;DHT22;32569;51.762;8.564;2024-02-26T06:40:08;6.40;99.90
15231;DHT22;32569;51.762;8.564;2024-02-26T06:42:35;6.40;99.90
15231;DHT22;32569;51.762;8.564;2024-02-26T06:45:02;6.40;99.90
15231;DHT22;32569;51.762;8.564;2024-02-26T06:47:30;6.30;99.90
15231;DHT22;32569;51.762;8.564;2024-02-26T06:49:56;6.20;99.90
15231;DHT22;32569;51.762;8.564;2024-02-26T06:52:23;6.30;99.90
15231;DHT22;32569;51.762;8.564;2024-02-26T06:54:51;6.30;99.90
15231;DHT22;32569;51.762;8.564;2024-02-26T06:57:19;6.30;99.90
15231;DHT22;32569;51.762;8.564;2024-02-26T06:59:46;6.20;99.90
15231;DHT22;32569;51.762;8.564;2024-02-26T07:02:13;6.10;99.90
15231;DHT22;32569;51.762;8.564;2024-02-26T07:04:39;6.10;99.90
15231;DHT22;32569;51.762;8.564;2024-02-26T07:07:09;6.00;99.90
15231;DHT22;32569;51.762;8.564;2024-02-26T07:09:36;6.00;99.90
15231;DHT22;32569;51.762;8.564;2024-02-26T07:12:03;6.10;99.90
15231;DHT22;32569;51.762;8.564;2024-02-26T07:14:32;6.10;99.90
15231;DHT22;32569;51.762;8.564;2024-02-26T07:16:59;6.10;99.90
15231;DHT22;32569;51.762;8.564;2024-02-26T07:19:25;6.30;99.90
15231;DHT22;32569;51.762;8.564;2024-02-26T07:21:52;6.40;99.90
15231;DHT22;32569;51.762;8.564;2024-02-26T07:24:19;6.40;99.90
15231;DHT22;32569;51.762;8.564;2024-02-26T07:26:44;6.40;99.90
15231;DHT22;32569;51.762;8.564;2024-02-26T07:29:11;6.40;99.90
15231;DHT22;32569;51.762;8.564;2024-02-26T07:31:39;6.40;99.90
15231;DHT22;32569;51.762;8.564;2024-02-26T07:34:05;6.50;99.90
15231;DHT22;32569;51.762;8.564;2024-02-26T07:36:32;6.50;99.90
15231;DHT22;32569;51.762;8.564;2024-02-26T07:38:59;6.50;99.90
15231;DHT22;32569;51.762;8.564;2024-02-26T07:41:26;6.50;99.90
15231;DHT22;32569;51.762;8.564;2024-02-26T07:43:53;6.40;99.90
15231;DHT22;32569;51.762;8.564;2024-02-26T07:46:19;6.30;99.90
15231;DHT22;32569;51.762;8.564;2024-02-26T07:48:47;6.30;99.90
15231;DHT22;32569;51.762;8.564;2024-02-26T07:51:14;6.30;99.90
15231;DHT22;32569;51.762;8.564;2024-02-26T07:53:41;6.30;99.90
15231;DHT22;32569;51.762;8.564;2024-02-26T07:56:10;6.30;99.90
15231;DHT22;32569;51.762;8.564;2024-02-26T07:58:36;6.50;99.90
15231;DHT22;32569;51.762;8.564;2024-02-26T08:01:03;6.50;99.90
15231;DHT22;32569;51.762;8.564;2024-02-26T08:03:30;6.60;99.90
15231;DHT22;32569;51.762;8.564;2024-02-26T08:05:58;6.70;99.90
15231;DHT22;32569;51.762;8.564;2024-02-26T08:08:24;6.70;99.90
15231;DHT22;32569;51.762;8.564;2024-02-26T08:10:51;6.70;99.90
15231;DHT22;32569;51.762;8.564;2024-02-26T08:13:18;6.80;99.90
15231;DHT22;32569;51.762;8.564;2024-02-26T08:15:44;6.80;99.90
15231;DHT22;32569;51.762;8.564;2024-02-26T08:18:14;6.90;99.90
15231;DHT22;32569;51.762;8.564;2024-02-26T08:20:41;7.00;99.90
15231;DHT22;32569;51.762;8.564;2024-02-26T08:23:09;6.90;99.90
15231;DHT22;32569;51.762;8.564;2024-02-26T08:25:36;6.90;99.90
15231;DHT22;32569;51.762;8.564;2024-02-26T08:28:03;7.00;99.90
15231;DHT22;32569;51.762;8.564;2024-02-26T08:30:30;7.00;99.90
15231;DHT22;32569;51.762;8.564;2024-02-26T08:32:57;7.00;99.90
15231;DHT22;32569;51.762;8.564;2024-02-26T08:35:24;7.00;99.90
15231;DHT22;32569;51.762;8.564;2024-02-26T08:37:50;7.00;99.90
15231;DHT22;32569;51.762;8.564;2024-02-26T08:40:18;7.20;99.90
15231;DHT22;32569;51.762;8.564;2024-02-26T08:42:45;7.20;99.90
15231;DHT22;32569;51.762;8.564;2024-02-26T08:45:12;7.20;99.90
15231;DHT22;32569;51.762;8.564;2024-02-26T08:47:39;7.30;99.90
15231;DHT22;32569;51.762;8.564;2024-02-26T08:50:06;7.30;99.90
15231;DHT22;32569;51.762;8.564;2024-02-26T08:52:34;7.30;99.90
15231;DHT22;32569;51.762;8.564;2024-02-26T08:55:02;7.40;99.90
15231;DHT22;32569;51.762;8.564;2024-02-26T08:57:31;7.50;99.90
15231;DHT22;32569;51.762;8.564;2024-02-26T08:59:59;7.50;99.90
15231;DHT22;32569;51.762;8.564;2024-02-26T09:02:26;7.50;99.90
15231;DHT22;32569;51.762;8.564;2024-02-26T09:04:53;7.60;99.90
15231;DHT22;32569;51.762;8.564;2024-02-26T09:07:20;7.60;99.90
15231;DHT22;32569;51.762;8.564;2024-02-26T09:09:51;7.70;99.90
15231;DHT22;32569;51.762;8.564;2024-02-26T09:12:17;7.70;99.90
15231;DHT22;32569;51.762;8.564;2024-02-26T09:14:46;7.70;99.90
15231;DHT22;32569;51.762;8.564;2024-02-26T09:17:15;7.80;99.90
15231;DHT22;32569;51.762;8.564;2024-02-26T09:19:42;7.90;99.90
15231;DHT22;32569;51.762;8.564;2024-02-26T09:22:12;7.90;99.90
15231;DHT22;32569;51.762;8.564;2024-02-26T09:24:39;8.00;99.90
15231;DHT22;32569;51.762;8.564;2024-02-26T09:27:06;8.10;99.90
15231;DHT22;32569;51.762;8.564;2024-02-26T09:29:32;8.10;99.90
15231;DHT22;32569;51.762;8.564;2024-02-26T09:32:03;8.20;99.90
15231;DHT22;32569;51.762;8.564;2024-02-26T09:34:30;8.30;99.90
15231;DHT22;32569;51.762;8.564;2024-02-26T09:36:56;8.30;99.90
15231;DHT22;32569;51.762;8.564;2024-02-26T09:39:23;8.40;99.90
15231;DHT22;32569;51.762;8.564;2024-02-26T09:41:50;8.40;99.90
15231;DHT22;32569;51.762;8.564;2024-02-26T09:44:19;8.50;99.90
15231;DHT22;32569;51.762;8.564;2024-02-26T09:46:47;8.60;99.90
15231;DHT22;32569;51.762;8.564;2024-02-26T09:49:16;8.70;99.80
15231;DHT22;32569;51.762;8.564;2024-02-26T09:51:43;8.80;99.70
15231;DHT22;32569;51.762;8.564;2024-02-26T09:54:10;8.80;99.10
15231;DHT22;32569;51.762;8.564;2024-02-26T09:56:39;8.90;98.80
15231;DHT22;32569;51.762;8.564;2024-02-26T09:59:09;8.90;98.90
15231;DHT22;32569;51.762;8.564;2024-02-26T10:01:38;9.00;99.30
15231;DHT22;32569;51.762;8.564;2024-02-26T10:04:05;9.10;99.10
15231;DHT22;32569;51.762;8.564;2024-02-26T10:06:34;9.20;99.70
15231;DHT22;32569;51.762;8.564;2024-02-26T10:09:03;9.10;99.60
15231;DHT22;32569;51.762;8.564;2024-02-26T10:11:32;9.10;99.50
15231;DHT22;32569;51.762;8.564;2024-02-26T10:13:59;9.10;99.40
15231;DHT22;32569;51.762;8.564;2024-02-26T10:16:26;9.10;99.80
15231;DHT22;32569;51.762;8.564;2024-02-26T10:18:53;9.10;99.90
15231;DHT22;32569;51.762;8.564;2024-02-26T10:21:20;9.10;99.90
15231;DHT22;32569;51.762;8.564;2024-02-26T10:23:49;9.10;99.90
15231;DHT22;32569;51.762;8.564;2024-02-26T10:26:17;9.10;99.90
15231;DHT22;32569;51.762;8.564;2024-02-26T10:28:44;9.20;99.90
15231;DHT22;32569;51.762;8.564;2024-02-26T10:31:13;9.20;99.90
15231;DHT22;32569;51.762;8.564;2024-02-26T10:33:41;9.20;99.80
15231;DHT22;32569;51.762;8.564;2024-02-26T10:36:09;9.20;99.90
15231;DHT22;32569;51.762;8.564;2024-02-26T10:38:36;9.20;99.30
15231;DHT22;32569;51.762;8.564;2024-02-26T10:41:06;9.20;99.10
15231;DHT22;32569;51.762;8.564;2024-02-26T10:43:33;9.30;99.60
15231;DHT22;32569;51.762;8.564;2024-02-26T10:46:00;9.30;99.00
15231;DHT22;32569;51.762;8.564;2024-02-26T10:48:27;9.40;98.80
15231;DHT22;32569;51.762;8.564;2024-02-26T10:50:54;9.40;98.70
15231;DHT22;32569;51.762;8.564;2024-02-26T10:53:23;9.40;99.10
15231;DHT22;32569;51.762;8.564;2024-02-26T10:55:54;9.40;98.90
15231;DHT22;32569;51.762;8.564;2024-02-26T10:58:24;9.40;99.30
15231;DHT22;32569;51.762;8.564;2024-02-26T11:00:52;9.50;99.30
15231;DHT22;32569;51.762;8.564;2024-02-26T11:03:19;9.60;98.30
15231;DHT22;32569;51.762;8.564;2024-02-26T11:05:48;9.50;98.30
15231;DHT22;32569;51.762;8.564;2024-02-26T11:08:16;9.60;98.40
15231;DHT22;32569;51.762;8.564;2024-02-26T11:10:46;9.60;98.70
15231;DHT22;32569;51.762;8.564;2024-02-26T11:13:14;9.60;98.50
15231;DHT22;32569;51.762;8.564;2024-02-26T11:15:44;9.70;98.40
15231;DHT22;32569;51.762;8.564;2024-02-26T11:18:15;9.80;98.40
15231;DHT22;32569;51.762;8.564;2024-02-26T11:20:42;9.70;98.10
15231;DHT22;32569;51.762;8.564;2024-02-26T11:23:09;9.70;98.00
15231;DHT22;32569;51.762;8.564;2024-02-26T11:25:36;9.60;98.20
15231;DHT22;32569;51.762;8.564;2024-02-26T11:28:08;9.70;98.10
15231;DHT22;32569;51.762;8.564;2024-02-26T11:30:42;9.70;98.10
15231;DHT22;32569;51.762;8.564;2024-02-26T11:33:11;9.70;98.40
15231;DHT22;32569;51.762;8.564;2024-02-26T11:35:39;9.80;98.20
15231;DHT22;32569;51.762;8.564;2024-02-26T11:38:06;9.80;98.60
15231;DHT22;32569;51.762;8.564;2024-02-26T11:40:33;9.80;98.70
15231;DHT22;32569;51.762;8.564;2024-02-26T11:43:00;9.80;98.80
15231;DHT22;32569;51.762;8.564;2024-02-26T11:45:49;9.80;98.40
15231;DHT22;32569;51.762;8.564;2024-02-26T11:48:22;9.90;98.50
15231;DHT22;32569;51.762;8.564;2024-02-26T11:50:50;9.90;98.40
15231;DHT22;32569;51.762;8.564;2024-02-26T11:53:20;9.80;98.30
15231;DHT22;32569;51.762;8.564;2024-02-26T11:55:47;9.90;98.70
15231;DHT22;32569;51.762;8.564;2024-02-26T11:58:13;9.90;98.70
15231;DHT22;32569;51.762;8.564;2024-02-26T12:00:40;9.90;98.80
15231;DHT22;32569;51.762;8.564;2024-02-26T12:03:07;10.00;98.50
15231;DHT22;32569;51.762;8.564;2024-02-26T12:05:39;10.00;98.70
15231;DHT22;32569;51.762;8.564;2024-02-26T12:08:07;9.90;98.60
15231;DHT22;32569;51.762;8.564;2024-02-26T12:10:35;10.00;98.80
15231;DHT22;32569;51.762;8.564;2024-02-26T12:13:06;10.00;98.90
15231;DHT22;32569;51.762;8.564;2024-02-26T12:15:36;10.00;98.80
15231;DHT22;32569;51.762;8.564;2024-02-26T12:18:05;9.90;99.00
15231;DHT22;32569;51.762;8.564;2024-02-26T12:20:32;10.00;99.00
15231;DHT22;32569;51.762;8.564;2024-02-26T12:23:00;10.00;99.10
15231;DHT22;32569;51.762;8.564;2024-02-26T12:25:28;10.00;99.30
15231;DHT22;32569;51.762;8.564;2024-02-26T12:27:56;9.90;99.40
15231;DHT22;32569;51.762;8.564;2024-02-26T12:30:24;9.80;99.60
15231;DHT22;32569;51.762;8.564;2024-02-26T12:32:53;9.80;99.60
15231;DHT22;32569;51.762;8.564;2024-02-26T12:35:22;9.70;99.90
15231;DHT22;32569;51.762;8.564;2024-02-26T12:37:49;9.70;99.90
15231;DHT22;32569;51.762;8.564;2024-02-26T12:40:18;9.80;99.90
15231;DHT22;32569;51.762;8.564;2024-02-26T12:42:45;9.70;99.80
15231;DHT22;32569;51.762;8.564;2024-02-26T12:45:13;9.80;99.90
15231;DHT22;32569;51.762;8.564;2024-02-26T12:47:42;9.80;99.90
15231;DHT22;32569;51.762;8.564;2024-02-26T12:50:10;9.90;99.90
15231;DHT22;32569;51.762;8.564;2024-02-26T12:52:39;9.90;99.90
15231;DHT22;32569;51.762;8.564;2024-02-26T12:55:06;9.80;99.90
15231;DHT22;32569;51.762;8.564;2024-02-26T12:57:36;9.80;99.90
15231;DHT22;32569;51.762;8.564;2024-02-26T13:00:05;9.80;99.90
15231;DHT22;32569;51.762;8.564;2024-02-26T13:02:35;9.80;99.90
15231;DHT22;32569;51.762;8.564;2024-02-26T13:05:03;9.80;99.90
15231;DHT22;32569;51.762;8.564;2024-02-26T13:07:41;9.80;99.90
15231;DHT22;32569;51.762;8.564;2024-02-26T13:10:10;9.70;99.90
15231;DHT22;32569;51.762;8.564;2024-02-26T13:12:42;9.60;99.90
15231;DHT22;32569;51.762;8.564;2024-02-26T13:15:14;9.60;99.90
15231;DHT22;32569;51.762;8.564;2024-02-26T13:17:41;9.50;99.90
15231;DHT22;32569;51.762;8.564;2024-02-26T13:20:08;9.50;99.90
15231;DHT22;32569;51.762;8.564;2024-02-26T13:22:35;9.40;99.90
15231;DHT22;32569;51.762;8.564;2024-02-26T13:25:02;9.30;99.90
15231;DHT22;32569;51.762;8.564;2024-02-26T13:27:29;9.20;99.90
15231;DHT22;32569;51.762;8.564;2024-02-26T13:30:09;9.20;99.90
15231;DHT22;32569;51.762;8.564;2024-02-26T13:32:37;9.20;99.90
15231;DHT22;32569;51.762;8.564;2024-02-26T13:35:06;9.20;99.90
15231;DHT22;32569;51.762;8.564;2024-02-26T13:37:32;9.10;99.90
15231;DHT22;32569;51.762;8.564;2024-02-26T13:39:58;9.10;99.90
15231;DHT22;32569;51.762;8.564;2024-02-26T13:42:25;9.10;99.90
15231;DHT22;32569;51.762;8.564;2024-02-26T13:44:52;9.10;99.90
15231;DHT22;32569;51.762;8.564;2024-02-26T13:47:20;9.10;99.90
15231;DHT22;32569;51.762;8.564;2024-02-26T13:49:46;9.20;99.90
15231;DHT22;32569;51.762;8.564;2024-02-26T13:52:14;9.20;99.90
15231;DHT22;32569;51.762;8.564;2024-02-26T13:54:40;9.20;99.90
15231;DHT22;32569;51.762;8.564;2024-02-26T13:57:07;9.20;99.80
15231;DHT22;32569;51.762;8.564;2024-02-26T13:59:34;9.10;99.90
15231;DHT22;32569;51.762;8.564;2024-02-26T14:02:01;9.20;99.90
15231;DHT22;32569;51.762;8.564;2024-02-26T14:04:29;9.20;99.90
15231;DHT22;32569;51.762;8.564;2024-02-26T14:06:56;9.20;99.80
15231;DHT22;32569;51.762;8.564;2024-02-26T14:09:23;9.20;99.90
15231;DHT22;32569;51.762;8.564;2024-02-26T14:11:52;9.20;99.90
15231;DHT22;32569;51.762;8.564;2024-02-26T14:14:19;9.20;99.90
15231;DHT22;32569;51.762;8.564;2024-02-26T14:16:45;9.30;99.90
15231;DHT22;32569;51.762;8.564;2024-02-26T14:19:12;9.40;99.90
15231;DHT22;32569;51.762;8.564;2024-02-26T14:21:40;9.40;99.90
15231;DHT22;32569;51.762;8.564;2024-02-26T14:24:07;9.30;99.80
15231;DHT22;32569;51.762;8.564;2024-02-26T14:26:34;9.30;99.70
15231;DHT22;32569;51.762;8.564;2024-02-26T14:29:01;9.20;99.90
15231;DHT22;32569;51.762;8.564;2024-02-26T14:31:28;9.20;99.90
15231;DHT22;32569;51.762;8.564;2024-02-26T14:33:54;9.10;99.90
15231;DHT22;32569;51.762;8.564;2024-02-26T14:36:22;9.10;99.90
15231;DHT22;32569;51.762;8.564;2024-02-26T14:38:51;9.00;99.90
15231;DHT22;32569;51.762;8.564;2024-02-26T14:41:20;9.00;99.90
15231;DHT22;32569;51.762;8.564;2024-02-26T14:43:47;9.00;99.90
15231;DHT22;32569;51.762;8.564;2024-02-26T14:46:13;9.00;99.90
15231;DHT22;32569;51.762;8.564;2024-02-26T14:48:40;9.00;99.90
15231;DHT22;32569;51.762;8.564;2024-02-26T14:51:07;9.00;99.90
15231;DHT22;32569;51.762;8.564;2024-02-26T14:53:33;9.00;99.90
15231;DHT22;32569;51.762;8.564;2024-02-26T14:56:02;9.00;99.90
15231;DHT22;32569;51.762;8.564;2024-02-26T14:58:28;9.00;99.90
15231;DHT22;32569;51.762;8.564;2024-02-26T15:00:55;8.90;99.90
15231;DHT22;32569;51.762;8.564;2024-02-26T15:03:21;8.90;99.90
15231;DHT22;32569;51.762;8.564;2024-02-26T15:05:48;9.00;99.90
15231;DHT22;32569;51.762;8.564;2024-02-26T15:08:15;9.00;99.90
15231;DHT22;32569;51.762;8.564;2024-02-26T15:10:43;8.90;99.90
15231;DHT22;32569;51.762;8.564;2024-02-26T15:13:14;9.00;99.90
15231;DHT22;32569;51.762;8.564;2024-02-26T15:15:43;8.90;99.90
15231;DHT22;32569;51.762;8.564;2024-02-26T15:18:10;8.90;99.90
15231;DHT22;32569;51.762;8.564;2024-02-26T15:20:41;8.90;99.90
15231;DHT22;32569;51.762;8.564;2024-02-26T15:23:07;8.90;99.90
15231;DHT22;32569;51.762;8.564;2024-02-26T15:25:34;8.80;99.90
15231;DHT22;32569;51.762;8.564;2024-02-26T15:28:01;8.80;99.90
15231;DHT22;32569;51.762;8.564;2024-02-26T15:30:29;8.80;99.90
15231;DHT22;32569;51.762;8.564;2024-02-26T15:32:57;8.80;99.90
15231;DHT22;32569;51.762;8.564;2024-02-26T15:35:23;8.80;99.90
15231;DHT22;32569;51.762;8.564;2024-02-26T15:37:50;8.80;99.90
15231;DHT22;32569;51.762;8.564;2024-02-26T15:40:17;8.70;99.90
15231;DHT22;32569;51.762;8.564;2024-02-26T15:42:45;8.70;99.90
15231;DHT22;32569;51.762;8.564;2024-02-26T15:45:12;8.70;99.90
15231;DHT22;32569;51.762;8.564;2024-02-26T15:47:40;8.70;99.90